createdAt,value
2022-07-25T00:00:07.407Z,98499.00
2022-07-25T00:02:39.757Z,98495.00
2022-07-25T00:05:10.831Z,98490.00
2022-07-25T00:07:41.823Z,98491.00
2022-07-25T00:10:12.991Z,98483.00
2022-07-25T00:12:44.958Z,98482.00
2022-07-25T00:15:16.145Z,98479.00
2022-07-25T00:17:47.141Z,98477.00
2022-07-25T00:20:18.233Z,98476.00
2022-07-25T00:22:49.228Z,98495.00
2022-07-25T00:25:20.207Z,98479.00
2022-07-25T00:27:51.135Z,98475.00
2022-07-25T00:30:22.183Z,98471.00
2022-07-25T00:32:53.199Z,98480.00
2022-07-25T00:35:24.361Z,98470.00
2022-07-25T00:37:59.489Z,98471.00
2022-07-25T00:40:30.396Z,98475.00
2022-07-25T00:43:01.603Z,98470.00
2022-07-25T00:45:32.758Z,98474.00
2022-07-25T00:48:04.027Z,98477.00
2022-07-25T00:50:35.869Z,98480.00
2022-07-25T00:53:06.806Z,98474.00
2022-07-25T00:55:38.293Z,98481.00
2022-07-25T00:58:09.262Z,98477.00
2022-07-25T01:00:40.473Z,98471.00
2022-07-25T01:03:11.415Z,98473.00
2022-07-25T01:05:43.476Z,98481.00
2022-07-25T01:08:14.539Z,98470.00
2022-07-25T01:10:47.710Z,98460.00
2022-07-25T01:13:18.737Z,98465.00
2022-07-25T01:15:51.949Z,98465.00
2022-07-25T01:18:23.002Z,98465.00
2022-07-25T01:20:53.918Z,98464.00
2022-07-25T01:23:24.860Z,98460.00
2022-07-25T01:25:55.851Z,98462.00
2022-07-25T01:28:26.796Z,98455.00
2022-07-25T01:30:58.067Z,98450.00
2022-07-25T01:33:29.050Z,98452.00
2022-07-25T01:36:02.186Z,98445.00
2022-07-25T01:38:33.204Z,98433.00
2022-07-25T01:41:04.283Z,98441.00
2022-07-25T01:43:35.248Z,98443.00
2022-07-25T01:46:06.466Z,98445.00
2022-07-25T01:48:37.519Z,98440.00
2022-07-25T01:51:10.510Z,98439.00
2022-07-25T01:53:42.215Z,98445.00
2022-07-25T01:56:15.613Z,98440.00
2022-07-25T01:58:46.510Z,98438.00
2022-07-25T02:01:17.706Z,98440.00
2022-07-25T02:03:52.587Z,98436.00
2022-07-25T02:06:23.554Z,98424.00
2022-07-25T02:08:54.447Z,98433.00
2022-07-25T02:11:25.331Z,98431.00
2022-07-25T02:13:56.247Z,98425.00
2022-07-25T02:16:28.666Z,98422.00
2022-07-25T02:19:00.295Z,98416.00
2022-07-25T02:21:31.230Z,98424.00
2022-07-25T02:24:02.587Z,98420.00
2022-07-25T02:26:34.138Z,98424.00
2022-07-25T02:29:05.198Z,98420.00
2022-07-25T02:31:36.158Z,98411.00
2022-07-25T02:34:07.548Z,98410.00
2022-07-25T02:36:38.761Z,98414.00
2022-07-25T02:39:09.669Z,98416.00
2022-07-25T02:41:40.770Z,98405.00
2022-07-25T02:44:12.445Z,98400.00
2022-07-25T02:46:43.422Z,98405.00
2022-07-25T02:49:15.817Z,98398.00
2022-07-25T02:51:46.788Z,98388.00
2022-07-25T02:54:17.742Z,98389.00
2022-07-25T02:56:48.742Z,98398.00
2022-07-25T02:59:19.655Z,98395.00
2022-07-25T03:01:50.619Z,98395.00
2022-07-25T03:04:21.578Z,98392.00
2022-07-25T03:06:52.626Z,98392.00
2022-07-25T03:09:23.558Z,98392.00
2022-07-25T03:11:54.615Z,98390.00
2022-07-25T03:14:25.745Z,98397.00
2022-07-25T03:16:56.758Z,98398.00
2022-07-25T03:19:27.841Z,98404.00
2022-07-25T03:21:58.729Z,98393.00
2022-07-25T03:24:29.695Z,98377.00
2022-07-25T03:27:00.641Z,98375.00
2022-07-25T03:29:31.558Z,98387.00
2022-07-25T03:32:02.716Z,98375.00
2022-07-25T03:34:34.394Z,98369.00
2022-07-25T03:37:05.668Z,98367.00
2022-07-25T03:39:36.715Z,98364.00
2022-07-25T03:42:09.473Z,98368.00
2022-07-25T03:44:40.452Z,98377.00
2022-07-25T03:47:11.455Z,98364.00
2022-07-25T03:49:51.755Z,98350.00
2022-07-25T03:52:22.686Z,98354.00
2022-07-25T03:54:53.686Z,98359.00
2022-07-25T03:57:24.642Z,98363.00
2022-07-25T03:59:55.644Z,98347.00
2022-07-25T04:02:26.782Z,98354.00
2022-07-25T04:04:58.232Z,98345.00
2022-07-25T04:07:29.146Z,98340.00
2022-07-25T04:10:00.107Z,98349.00
2022-07-25T04:12:31.107Z,98352.00
2022-07-25T04:15:02.129Z,98343.00
2022-07-25T04:17:33.064Z,98357.00
2022-07-25T04:20:05.643Z,98345.00
2022-07-25T04:22:42.080Z,98343.00
2022-07-25T04:25:14.539Z,98340.00
2022-07-25T04:27:45.540Z,98337.00
2022-07-25T04:30:24.314Z,98339.00
2022-07-25T04:32:56.287Z,98337.00
2022-07-25T04:35:27.409Z,98342.00
2022-07-25T04:37:58.317Z,98335.00
2022-07-25T04:40:29.331Z,98327.00
2022-07-25T04:43:00.540Z,98336.00
2022-07-25T04:45:32.872Z,98334.00
2022-07-25T04:48:04.762Z,98331.00
2022-07-25T04:50:35.687Z,98337.00
2022-07-25T04:53:06.687Z,98334.00
2022-07-25T04:55:38.912Z,98343.00
2022-07-25T04:58:10.065Z,98337.00
2022-07-25T05:00:41.057Z,98335.00
2022-07-25T05:03:12.350Z,98337.00
2022-07-25T05:05:43.337Z,98330.00
2022-07-25T05:08:14.569Z,98335.00
2022-07-25T05:10:45.865Z,98331.00
2022-07-25T05:13:18.253Z,98334.00
2022-07-25T05:15:49.163Z,98343.00
2022-07-25T05:18:20.142Z,98330.00
2022-07-25T05:20:51.139Z,98320.00
2022-07-25T05:23:22.468Z,98326.00
2022-07-25T05:25:53.525Z,98333.00
2022-07-25T05:28:25.126Z,98328.00
2022-07-25T05:30:56.126Z,98326.00
2022-07-25T05:33:27.179Z,98330.00
2022-07-25T05:35:58.133Z,98319.00
2022-07-25T05:38:31.668Z,98320.00
2022-07-25T05:41:02.679Z,98314.00
2022-07-25T05:43:34.121Z,98322.00
2022-07-25T05:46:05.927Z,98308.00
2022-07-25T05:48:36.843Z,98310.00
2022-07-25T05:51:08.562Z,98312.00
2022-07-25T05:53:39.840Z,98308.00
2022-07-25T05:56:11.538Z,98302.00
2022-07-25T05:58:42.552Z,98290.00
2022-07-25T06:01:18.384Z,98302.00
2022-07-25T06:03:49.345Z,98300.00
2022-07-25T06:06:20.253Z,98299.00
2022-07-25T06:08:51.352Z,98293.00
2022-07-25T06:11:28.005Z,98293.00
2022-07-25T06:14:01.649Z,98289.00
2022-07-25T06:16:32.805Z,98297.00
2022-07-25T06:19:03.958Z,98291.00
2022-07-25T06:21:34.877Z,98286.00
2022-07-25T06:24:06.218Z,98282.00
2022-07-25T06:26:40.733Z,98287.00
2022-07-25T06:29:12.330Z,98284.00
2022-07-25T06:31:46.459Z,98275.00
2022-07-25T06:34:18.407Z,98275.00
2022-07-25T06:36:49.395Z,98279.00
2022-07-25T06:39:20.391Z,98274.00
2022-07-25T06:41:51.470Z,98274.00
2022-07-25T06:44:22.434Z,98271.00
2022-07-25T06:46:53.379Z,98271.00
2022-07-25T06:49:24.319Z,98262.00
2022-07-25T06:51:55.223Z,98267.00
2022-07-25T06:54:26.194Z,98273.00
2022-07-25T06:56:57.166Z,98264.00
2022-07-25T06:59:28.181Z,98267.00
2022-07-25T07:01:59.176Z,98271.00
2022-07-25T07:04:30.147Z,98264.00
2022-07-25T07:07:01.086Z,98270.00
2022-07-25T07:09:33.140Z,98279.00
2022-07-25T07:12:04.337Z,98273.00
2022-07-25T07:14:35.501Z,98280.00
2022-07-25T07:17:06.439Z,98270.00
2022-07-25T07:19:43.907Z,98271.00
2022-07-25T07:22:14.776Z,98267.00
2022-07-25T07:24:48.254Z,98266.00
2022-07-25T07:27:24.227Z,98265.00
2022-07-25T07:29:55.117Z,98270.00
2022-07-25T07:32:26.170Z,98271.00
2022-07-25T07:34:57.103Z,98268.00
2022-07-25T07:37:31.675Z,98263.00
2022-07-25T07:40:07.706Z,98259.00
2022-07-25T07:42:50.061Z,98252.00
2022-07-25T07:45:25.860Z,98251.00
2022-07-25T07:47:57.199Z,98251.00
2022-07-25T07:50:29.028Z,98239.00
2022-07-25T07:53:00.043Z,98234.00
2022-07-25T07:55:46.531Z,98237.00
2022-07-25T07:58:20.163Z,98237.00
2022-07-25T08:00:52.166Z,98240.00
2022-07-25T08:03:23.121Z,98240.00
2022-07-25T08:05:54.273Z,98242.00
2022-07-25T08:08:30.626Z,98247.00
2022-07-25T08:11:02.166Z,98241.00
2022-07-25T08:13:38.130Z,98245.00
2022-07-25T08:16:11.909Z,98242.00
2022-07-25T08:18:42.886Z,98237.00
2022-07-25T08:21:13.875Z,98239.00
2022-07-25T08:23:47.137Z,98232.00
2022-07-25T08:26:18.081Z,98242.00
2022-07-25T08:28:59.875Z,98242.00
2022-07-25T08:31:36.241Z,98237.00
2022-07-25T08:34:07.579Z,98238.00
2022-07-25T08:36:38.700Z,98237.00
2022-07-25T08:39:10.363Z,98231.00
2022-07-25T08:41:41.947Z,98225.00
2022-07-25T08:44:14.768Z,98231.00
2022-07-25T08:46:46.281Z,98230.00
2022-07-25T08:49:18.200Z,98232.00
2022-07-25T08:51:51.096Z,98224.00
2022-07-25T08:54:24.841Z,98228.00
2022-07-25T08:56:55.707Z,98225.00
2022-07-25T08:59:26.654Z,98231.00
2022-07-25T09:01:58.580Z,98223.00
2022-07-25T09:04:30.589Z,98227.00
2022-07-25T09:07:08.103Z,98228.00
2022-07-25T09:09:39.612Z,98225.00
2022-07-25T09:12:10.606Z,98227.00
2022-07-25T09:14:44.418Z,98213.00
2022-07-25T09:17:22.308Z,98222.00
2022-07-25T09:19:56.969Z,98225.00
2022-07-25T09:22:28.160Z,98217.00
2022-07-25T09:24:59.121Z,98210.00
2022-07-25T09:27:35.169Z,98221.00
2022-07-25T09:30:15.384Z,98215.00
2022-07-25T09:32:46.625Z,98211.00
2022-07-25T09:35:17.835Z,98212.00
2022-07-25T09:37:48.720Z,98206.00
2022-07-25T09:40:19.820Z,98214.00
2022-07-25T09:42:51.227Z,98206.00
2022-07-25T09:45:31.127Z,98207.00
2022-07-25T09:48:04.876Z,98206.00
2022-07-25T09:50:36.076Z,98203.00
2022-07-25T09:53:07.150Z,98208.00
2022-07-25T09:55:38.114Z,98206.00
2022-07-25T09:58:09.250Z,98202.00
2022-07-25T10:00:42.914Z,98198.00
2022-07-25T10:04:01.989Z,98202.00
2022-07-25T10:07:05.740Z,98193.00
2022-07-25T10:09:54.100Z,98200.00
2022-07-25T10:12:25.118Z,98194.00
2022-07-25T10:15:08.487Z,98189.00
2022-07-25T10:17:41.571Z,98189.00
2022-07-25T10:20:12.781Z,98184.00
2022-07-25T10:22:57.009Z,98187.00
2022-07-25T10:25:28.689Z,98188.00
2022-07-25T10:28:09.917Z,98176.00
2022-07-25T10:30:43.219Z,98176.00
2022-07-25T10:33:19.868Z,98171.00
2022-07-25T10:35:50.808Z,98173.00
2022-07-25T10:38:28.377Z,98170.00
2022-07-25T10:41:03.360Z,98174.00
2022-07-25T10:43:41.154Z,98168.00
2022-07-25T10:46:19.320Z,98164.00
2022-07-25T10:49:03.874Z,98155.00
2022-07-25T10:51:41.542Z,98167.00
2022-07-25T10:54:15.789Z,98153.00
2022-07-25T10:56:53.897Z,98156.00
2022-07-25T10:59:34.633Z,98153.00
2022-07-25T11:02:16.177Z,98154.00
2022-07-25T11:04:59.970Z,98141.00
2022-07-25T11:07:36.134Z,98142.00
2022-07-25T11:10:07.606Z,98149.00
2022-07-25T11:12:38.568Z,98150.00
2022-07-25T11:15:13.375Z,98144.00
2022-07-25T11:17:53.123Z,98140.00
2022-07-25T11:20:24.033Z,98131.00
2022-07-25T11:22:56.175Z,98127.00
2022-07-25T11:25:27.498Z,98125.00
2022-07-25T11:28:00.935Z,98122.00
2022-07-25T11:30:32.507Z,98132.00
2022-07-25T11:33:03.509Z,98117.00
2022-07-25T11:35:34.485Z,98117.00
2022-07-25T11:38:06.424Z,98115.00
2022-07-25T11:40:44.593Z,98116.00
2022-07-25T11:43:26.005Z,98115.00
2022-07-25T11:46:00.625Z,98117.00
2022-07-25T11:48:35.663Z,98106.00
2022-07-25T11:51:19.132Z,98119.00
2022-07-25T11:53:51.529Z,98110.00
2022-07-25T11:59:15.770Z,98102.00
2022-07-25T12:01:47.643Z,98103.00
2022-07-25T12:04:20.659Z,98098.00
2022-07-25T12:06:51.624Z,98100.00
2022-07-25T12:09:25.529Z,98099.00
2022-07-25T12:12:04.429Z,98091.00
2022-07-25T12:14:44.831Z,98094.00
2022-07-25T12:17:15.804Z,98084.00
2022-07-25T12:19:47.435Z,98085.00
2022-07-25T12:22:18.416Z,98094.00
2022-07-25T12:24:49.464Z,98093.00
2022-07-25T12:27:20.366Z,98093.00
2022-07-25T12:29:51.335Z,98092.00
2022-07-25T12:32:22.435Z,98100.00
2022-07-25T12:34:53.377Z,98100.00
2022-07-25T12:37:25.910Z,98091.00
2022-07-25T12:39:57.196Z,98091.00
2022-07-25T12:42:30.738Z,98077.00
2022-07-25T12:45:02.136Z,98092.00
2022-07-25T12:47:33.169Z,98089.00
2022-07-25T12:50:06.152Z,98097.00
2022-07-25T12:52:38.323Z,98097.00
2022-07-25T12:55:18.382Z,98086.00
2022-07-25T12:57:49.443Z,98093.00
2022-07-25T13:00:24.837Z,98103.00
2022-07-25T13:02:56.127Z,98083.00
2022-07-25T13:05:27.352Z,98086.00
2022-07-25T13:07:58.834Z,98082.00
2022-07-25T13:10:29.902Z,98083.00
2022-07-25T13:13:00.796Z,98079.00
2022-07-25T13:15:31.902Z,98083.00
2022-07-25T13:18:04.183Z,98073.00
2022-07-25T13:20:37.454Z,98077.00
2022-07-25T13:23:08.390Z,98067.00
2022-07-25T13:25:39.380Z,98081.00
2022-07-25T13:28:11.209Z,98076.00
2022-07-25T13:30:42.255Z,98074.00
2022-07-25T13:33:13.168Z,98070.00
2022-07-25T13:35:44.050Z,98069.00
2022-07-25T13:38:15.301Z,98067.00
2022-07-25T13:40:46.430Z,98079.00
2022-07-25T13:43:17.732Z,98070.00
2022-07-25T13:45:48.681Z,98070.00
2022-07-25T13:48:29.664Z,98061.00
2022-07-25T13:51:01.371Z,98064.00
2022-07-25T13:53:32.526Z,98062.00
2022-07-25T13:56:04.350Z,98062.00
2022-07-25T13:58:35.255Z,98051.00
2022-07-25T14:01:07.436Z,98059.00
2022-07-25T14:03:38.749Z,98050.00
2022-07-25T14:06:13.934Z,98058.00
2022-07-25T14:08:44.905Z,98050.00
2022-07-25T14:11:17.236Z,98069.00
2022-07-25T14:13:48.306Z,98074.00
2022-07-25T14:16:20.284Z,98055.00
2022-07-25T14:18:51.489Z,98048.00
2022-07-25T14:21:25.612Z,98050.00
2022-07-25T14:23:56.639Z,98071.00
2022-07-25T14:26:28.325Z,98062.00
2022-07-25T14:28:59.224Z,98066.00
2022-07-25T14:31:30.339Z,98065.00
2022-07-25T14:34:01.297Z,98067.00
2022-07-25T14:36:32.242Z,98069.00
2022-07-25T14:39:05.026Z,98069.00
2022-07-25T14:41:36.392Z,98060.00
2022-07-25T14:44:08.211Z,98054.00
2022-07-25T14:46:39.402Z,98060.00
2022-07-25T14:49:15.587Z,98056.00
2022-07-25T14:51:46.878Z,98057.00
2022-07-25T14:54:18.420Z,98064.00
2022-07-25T14:56:49.360Z,98069.00
2022-07-25T14:59:20.559Z,98075.00
2022-07-25T15:01:51.746Z,98059.00
2022-07-25T15:04:25.183Z,98063.00
2022-07-25T15:06:56.404Z,98050.00
2022-07-25T15:09:28.210Z,98065.00
2022-07-25T15:11:59.289Z,98065.00
2022-07-25T15:14:33.359Z,98063.00
2022-07-25T15:17:04.349Z,98068.00
2022-07-25T15:19:35.250Z,98054.00
2022-07-25T15:22:06.171Z,98063.00
2022-07-25T15:25:06.335Z,98065.00
2022-07-25T15:27:28.178Z,98070.00
2022-07-25T15:29:59.111Z,98069.00
2022-07-25T15:32:30.145Z,98078.00
2022-07-25T15:35:01.011Z,98087.00
2022-07-25T15:37:32.282Z,98089.00
2022-07-25T15:40:04.222Z,98080.00
2022-07-25T15:42:35.388Z,98087.00
2022-07-25T15:48:01.627Z,98100.00
2022-07-25T15:50:32.587Z,98084.00
2022-07-25T15:53:04.666Z,98097.00
2022-07-25T15:55:38.145Z,98080.00
2022-07-25T15:58:10.249Z,98087.00
2022-07-25T16:00:42.025Z,98082.00
2022-07-25T16:03:13.854Z,98079.00
2022-07-25T16:05:45.185Z,98085.00
2022-07-25T16:08:16.338Z,98077.00
2022-07-25T16:10:47.295Z,98090.00
2022-07-25T16:13:18.479Z,98080.00
2022-07-25T16:15:49.647Z,98069.00
2022-07-25T16:18:20.688Z,98064.00
2022-07-25T16:20:51.635Z,98065.00
2022-07-25T16:23:26.023Z,98080.00
2022-07-25T16:25:57.052Z,98073.00
2022-07-25T16:28:29.592Z,98079.00
2022-07-25T16:31:02.236Z,98071.00
2022-07-25T16:33:33.226Z,98073.00
2022-07-25T16:36:04.819Z,98072.00
2022-07-25T16:38:35.715Z,98064.00
2022-07-25T16:41:06.799Z,98071.00
2022-07-25T16:43:37.705Z,98074.00
2022-07-25T16:46:08.772Z,98060.00
2022-07-25T16:48:39.864Z,98067.00
2022-07-25T16:51:10.923Z,98054.00
2022-07-25T16:53:41.928Z,98060.00
2022-07-25T16:56:13.278Z,98061.00
2022-07-25T16:58:44.229Z,98064.00
2022-07-25T17:01:16.302Z,98061.00
2022-07-25T17:03:47.324Z,98075.00
2022-07-25T17:06:18.478Z,98078.00
2022-07-25T17:08:49.452Z,98065.00
2022-07-25T17:11:20.483Z,98064.00
2022-07-25T17:13:51.372Z,98076.00
2022-07-25T17:16:22.386Z,98074.00
2022-07-25T17:18:53.426Z,98067.00
2022-07-25T17:21:24.616Z,98070.00
2022-07-25T17:23:56.495Z,98071.00
2022-07-25T17:26:27.471Z,98073.00
2022-07-25T17:28:59.642Z,98080.00
2022-07-25T17:31:30.657Z,98081.00
2022-07-25T17:34:01.723Z,98095.00
2022-07-25T17:36:32.699Z,98076.00
2022-07-25T17:39:03.956Z,98081.00
2022-07-25T17:41:42.403Z,98084.00
2022-07-25T17:44:13.728Z,98101.00
2022-07-25T17:46:45.512Z,98097.00
2022-07-25T17:49:16.528Z,98108.00
2022-07-25T17:51:48.130Z,98100.00
2022-07-25T17:54:19.047Z,98097.00
2022-07-25T17:56:52.383Z,98091.00
2022-07-25T17:59:23.315Z,98109.00
2022-07-25T18:01:54.332Z,98121.00
2022-07-25T18:04:25.427Z,98119.00
2022-07-25T18:06:56.511Z,98123.00
2022-07-25T18:09:27.606Z,98129.00
2022-07-25T18:12:01.799Z,98127.00
2022-07-25T18:14:35.732Z,98136.00
2022-07-25T18:17:06.768Z,98144.00
2022-07-25T18:19:38.097Z,98150.00
2022-07-25T18:22:09.030Z,98153.00
2022-07-25T18:24:40.064Z,98156.00
2022-07-25T18:27:11.054Z,98159.00
2022-07-25T18:29:42.329Z,98172.00
2022-07-25T18:32:13.300Z,98176.00
2022-07-25T18:34:44.318Z,98194.00
2022-07-25T18:37:15.425Z,98191.00
2022-07-25T18:39:46.373Z,98175.00
2022-07-25T18:42:17.292Z,98186.00
2022-07-25T18:44:48.329Z,98213.00
2022-07-25T18:47:23.332Z,98201.00
2022-07-25T18:49:55.758Z,98210.00
2022-07-25T18:52:29.079Z,98213.00
2022-07-25T18:55:00.148Z,98217.00
2022-07-25T18:57:31.347Z,98221.00
2022-07-25T19:00:03.461Z,98224.00
2022-07-25T19:02:34.954Z,98237.00
2022-07-25T19:05:08.310Z,98245.00
2022-07-25T19:07:39.737Z,98241.00
2022-07-25T19:10:11.303Z,98255.00
2022-07-25T19:12:42.229Z,98254.00
2022-07-25T19:15:13.267Z,98264.00
2022-07-25T19:17:44.568Z,98261.00
2022-07-25T19:20:15.529Z,98270.00
2022-07-25T19:22:46.439Z,98267.00
2022-07-25T19:25:17.523Z,98285.00
2022-07-25T19:27:48.886Z,98288.00
2022-07-25T19:30:20.752Z,98302.00
2022-07-25T19:32:51.737Z,98304.00
2022-07-25T19:35:26.193Z,98297.00
2022-07-25T19:37:57.321Z,98310.00
2022-07-25T19:40:28.721Z,98312.00
2022-07-25T19:43:01.515Z,98311.00
2022-07-25T19:45:32.697Z,98313.00
2022-07-25T19:48:03.740Z,98324.00
2022-07-25T19:50:34.916Z,98323.00
2022-07-25T19:53:05.863Z,98334.00
2022-07-25T19:55:36.776Z,98341.00
2022-07-25T19:58:10.352Z,98342.00
2022-07-25T20:00:41.441Z,98348.00
2022-07-25T20:03:12.377Z,98346.00
2022-07-25T20:05:45.316Z,98349.00
2022-07-25T20:08:16.351Z,98355.00
2022-07-25T20:10:48.394Z,98351.00
2022-07-25T20:13:19.356Z,98343.00
2022-07-25T20:15:50.335Z,98341.00
2022-07-25T20:18:21.249Z,98352.00
2022-07-25T20:20:52.256Z,98362.00
2022-07-25T20:23:24.054Z,98364.00
2022-07-25T20:25:55.035Z,98366.00
2022-07-25T20:28:26.080Z,98368.00
2022-07-25T20:30:58.015Z,98373.00
2022-07-25T20:33:30.683Z,98375.00
2022-07-25T20:36:02.206Z,98369.00
2022-07-25T20:38:33.502Z,98367.00
2022-07-25T20:41:05.336Z,98391.00
2022-07-25T20:43:40.936Z,98366.00
2022-07-25T20:46:12.041Z,98383.00
2022-07-25T20:48:43.264Z,98368.00
2022-07-25T20:51:14.367Z,98378.00
2022-07-25T20:53:45.377Z,98382.00
2022-07-25T20:56:24.319Z,98391.00
2022-07-25T20:58:55.227Z,98400.00
2022-07-25T21:01:26.325Z,98418.00
2022-07-25T21:03:57.246Z,98404.00
2022-07-25T21:06:29.245Z,98426.00
2022-07-25T21:09:02.169Z,98401.00
2022-07-25T21:11:33.096Z,98398.00
2022-07-25T21:14:05.688Z,98405.00
2022-07-25T21:16:36.940Z,98405.00
2022-07-25T21:19:08.422Z,98413.00
2022-07-25T21:21:39.726Z,98411.00
2022-07-25T21:24:12.367Z,98410.00
2022-07-25T21:26:43.439Z,98407.00
2022-07-25T21:29:14.332Z,98410.00
2022-07-25T21:31:48.958Z,98416.00
2022-07-25T21:34:20.260Z,98419.00
2022-07-25T21:36:51.922Z,98434.00
2022-07-25T21:39:23.053Z,98431.00
2022-07-25T21:41:54.847Z,98441.00
2022-07-25T21:44:26.430Z,98451.00
2022-07-25T21:46:57.371Z,98448.00
2022-07-25T21:49:47.296Z,98457.00
2022-07-25T21:52:18.750Z,98451.00
2022-07-25T21:55:01.852Z,98454.00
2022-07-25T21:57:33.047Z,98449.00
2022-07-25T22:00:10.072Z,98460.00
2022-07-25T22:02:48.120Z,98451.00
2022-07-25T22:05:19.746Z,98460.00
2022-07-25T22:07:51.367Z,98458.00
2022-07-25T22:10:22.866Z,98455.00
2022-07-25T22:12:53.804Z,98456.00
2022-07-25T22:15:24.784Z,98450.00
2022-07-25T22:17:55.779Z,98463.00
2022-07-25T22:20:27.151Z,98472.00
2022-07-25T22:22:58.197Z,98474.00
2022-07-25T22:25:29.189Z,98465.00
2022-07-25T22:28:00.965Z,98472.00
2022-07-25T22:30:32.161Z,98476.00
2022-07-25T22:33:03.677Z,98475.00
2022-07-25T22:35:34.646Z,98464.00
2022-07-25T22:38:05.901Z,98470.00
2022-07-25T22:40:37.072Z,98472.00
2022-07-25T22:43:08.174Z,98480.00
2022-07-25T22:45:42.919Z,98479.00
2022-07-25T22:48:14.315Z,98491.00
2022-07-25T22:50:45.704Z,98482.00
2022-07-25T22:53:19.852Z,98509.00
2022-07-25T22:55:51.024Z,98496.00
2022-07-25T22:58:24.391Z,98503.00
2022-07-25T23:00:55.475Z,98507.00
2022-07-25T23:03:26.437Z,98514.00
2022-07-25T23:06:02.695Z,98509.00
2022-07-25T23:08:33.637Z,98517.00
2022-07-25T23:11:06.160Z,98523.00
2022-07-25T23:13:37.238Z,98518.00
2022-07-25T23:16:10.555Z,98515.00
2022-07-25T23:18:41.675Z,98526.00
2022-07-25T23:21:12.980Z,98537.00
2022-07-25T23:23:43.927Z,98544.00
2022-07-25T23:26:14.960Z,98542.00
2022-07-25T23:28:45.891Z,98557.00
2022-07-25T23:31:16.888Z,98539.00
2022-07-25T23:33:47.818Z,98530.00
2022-07-25T23:36:18.778Z,98548.00
2022-07-25T23:38:49.725Z,98543.00
2022-07-25T23:41:20.631Z,98540.00
2022-07-25T23:43:56.993Z,98549.00
2022-07-25T23:46:30.847Z,98542.00
2022-07-25T23:49:02.117Z,98550.00
2022-07-25T23:51:33.650Z,98556.00
2022-07-25T23:54:05.627Z,98556.00
2022-07-25T23:56:39.627Z,98554.00
2022-07-25T23:59:11.289Z,98559.00
